Time;durP1;ratioP1;P1;durP2;ratioP2;P2;SDS_P1;SDS_P2;PMS_P1;PMS_P2;Temp;Humidity;BMP_temperature;BMP_pressure;BME280_temperature;BME280_humidity;BME280_pressure;Samples;Min_cycle;Max_cycle;Signal;HPM_P1;HPM_P2
2022/09/10 00:02:19;;;;;;;2.50;0.30;;;16.20;99.90;;;;;;5015625;28;20034;-75
2022/09/10 00:04:45;;;;;;;2.15;0.40;;;16.20;99.90;;;;;;5013828;28;20030;-75
2022/09/10 00:07:11;;;;;;;2.30;0.35;;;16.20;99.90;;;;;;5013558;28;20028;-76
2022/09/10 00:09:37;;;;;;;1.98;0.40;;;16.10;99.90;;;;;;5012750;28;20065;-76
2022/09/10 00:12:03;;;;;;;0.80;0.30;;;16.20;99.90;;;;;;5014754;28;20034;-76
2022/09/10 00:14:29;;;;;;;0.70;0.20;;;16.10;99.90;;;;;;5014733;28;20036;-75
2022/09/10 00:16:54;;;;;;;2.03;0.43;;;16.10;99.90;;;;;;5013394;28;20096;-79
2022/09/10 00:19:21;;;;;;;1.63;0.43;;;16.10;99.90;;;;;;5012142;28;20069;-76
2022/09/10 00:21:48;;;;;;;1.20;0.38;;;16.10;99.90;;;;;;5014118;28;20029;-76
2022/09/10 00:24:14;;;;;;;0.85;0.25;;;16.10;99.90;;;;;;5013635;28;20365;-76
2022/09/10 00:26:40;;;;;;;2.33;0.45;;;16.00;99.90;;;;;;5015442;28;20029;-76
2022/09/10 00:29:09;;;;;;;3.88;0.40;;;16.00;99.90;;;;;;5014084;28;20045;-76
2022/09/10 00:31:36;;;;;;;1.73;0.43;;;16.00;99.90;;;;;;5014768;28;20147;-75
2022/09/10 00:34:04;;;;;;;1.58;0.35;;;16.00;99.90;;;;;;5012779;28;20029;-76
2022/09/10 00:36:38;;;;;;;3.05;0.38;;;16.00;99.90;;;;;;5013165;28;20036;-75
2022/09/10 00:39:12;;;;;;;3.97;0.60;;;16.00;99.90;;;;;;5012858;28;20096;-75
2022/09/10 00:41:39;;;;;;;2.47;0.65;;;16.00;99.90;;;;;;5013403;28;20026;-74
2022/09/10 00:44:36;;;;;;;1.55;0.35;;;15.90;99.90;;;;;;5012557;28;20379;-75
2022/09/10 00:47:11;;;;;;;1.40;0.57;;;15.90;99.90;;;;;;5013248;28;20493;-77
2022/09/10 00:49:40;;;;;;;1.95;0.50;;;15.90;99.90;;;;;;5013926;28;20041;-77
2022/09/10 00:52:06;;;;;;;1.45;0.32;;;15.90;99.90;;;;;;5015005;28;20050;-77
2022/09/10 00:54:34;;;;;;;2.08;0.60;;;16.00;99.90;;;;;;5013838;28;20098;-77
2022/09/10 00:57:07;;;;;;;2.40;0.52;;;15.90;99.90;;;;;;5013488;28;20033;-78
2022/09/10 00:59:33;;;;;;;1.58;0.40;;;15.90;99.90;;;;;;5013996;28;20029;-77
2022/09/10 01:01:59;;;;;;;1.60;0.40;;;15.90;99.90;;;;;;5013569;28;20363;-78
2022/09/10 01:04:27;;;;;;;1.52;0.30;;;15.90;99.90;;;;;;5013062;28;20053;-76
2022/09/10 01:06:54;;;;;;;2.92;0.77;;;16.00;99.90;;;;;;5014337;28;20018;-75
2022/09/10 01:09:22;;;;;;;2.40;0.45;;;16.00;99.90;;;;;;5013489;28;20038;-75
2022/09/10 01:12:09;;;;;;;3.72;0.70;;;16.00;99.90;;;;;;5014358;28;20026;-76
2022/09/10 01:14:55;;;;;;;1.63;0.60;;;16.00;99.90;;;;;;5013903;28;20061;-77
2022/09/10 01:17:26;;;;;;;1.77;0.63;;;16.00;99.90;;;;;;5012277;28;20065;-75
2022/09/10 01:20:13;;;;;;;0.63;0.40;;;16.00;99.90;;;;;;5013013;28;20092;-76
2022/09/10 01:23:04;;;;;;;2.35;0.40;;;16.00;99.90;;;;;;5012992;28;20030;-77
2022/09/10 01:25:51;;;;;;;0.55;0.30;;;16.00;99.90;;;;;;5013002;28;20033;-76
2022/09/10 01:28:26;;;;;;;1.40;0.40;;;16.00;99.90;;;;;;5012321;28;20133;-77
2022/09/10 01:30:59;;;;;;;2.38;0.45;;;16.00;99.90;;;;;;5014230;28;20026;-78
2022/09/10 01:33:33;;;;;;;2.28;0.40;;;15.90;99.90;;;;;;5014189;28;20084;-78
2022/09/10 01:36:08;;;;;;;3.22;0.43;;;15.90;99.90;;;;;;5013441;28;20054;-78
2022/09/10 01:38:42;;;;;;;0.95;0.30;;;15.90;99.90;;;;;;5013030;28;20030;-78
2022/09/10 01:41:09;;;;;;;1.33;0.43;;;15.80;99.90;;;;;;5013564;28;20026;-77
2022/09/10 01:43:35;;;;;;;5.00;1.10;;;15.80;99.90;;;;;;5012885;28;20442;-78
2022/09/10 01:46:18;;;;;;;1.00;0.35;;;15.80;99.90;;;;;;5012526;28;20030;-78
2022/09/10 01:49:00;;;;;;;2.33;0.38;;;15.90;99.90;;;;;;5013846;28;20038;-77
2022/09/10 01:51:38;;;;;;;2.90;0.40;;;15.80;99.90;;;;;;5013191;28;20033;-77
2022/09/10 01:54:38;;;;;;;0.85;0.38;;;15.80;99.90;;;;;;5013346;28;20030;-78
2022/09/10 01:57:22;;;;;;;2.15;0.63;;;15.80;99.90;;;;;;5012617;28;20028;-78
2022/09/10 01:59:59;;;;;;;2.60;0.40;;;15.80;99.90;;;;;;5012808;28;20069;-77
2022/09/10 02:02:35;;;;;;;2.65;0.40;;;15.80;99.90;;;;;;5013846;28;20030;-77
2022/09/10 02:05:02;;;;;;;1.83;0.30;;;15.80;99.90;;;;;;5012799;28;20030;-78
2022/09/10 02:07:30;;;;;;;3.78;0.88;;;15.90;99.90;;;;;;5012903;28;20125;-77
2022/09/10 02:09:58;;;;;;;2.13;0.45;;;15.90;99.90;;;;;;5013894;28;20108;-77
2022/09/10 02:12:23;;;;;;;0.50;0.30;;;15.80;99.90;;;;;;5012681;28;20463;-77
2022/09/10 02:14:54;;;;;;;2.60;0.40;;;15.90;99.90;;;;;;5012673;28;20161;-77
2022/09/10 02:17:23;;;;;;;1.58;0.30;;;15.90;99.90;;;;;;5013686;28;20112;-77
2022/09/10 02:19:51;;;;;;;0.40;0.30;;;15.90;99.90;;;;;;5013577;28;20034;-77
2022/09/10 02:22:18;;;;;;;2.13;0.40;;;15.90;99.90;;;;;;5012177;28;20030;-75
2022/09/10 02:24:44;;;;;;;1.75;0.40;;;15.90;99.90;;;;;;5012911;28;20049;-75
2022/09/10 02:27:13;;;;;;;0.50;0.32;;;15.90;99.90;;;;;;5012653;28;20029;-76
2022/09/10 02:29:39;;;;;;;1.38;0.30;;;15.90;99.90;;;;;;5012691;28;20033;-75
2022/09/10 02:32:07;;;;;;;1.70;0.40;;;16.00;99.90;;;;;;5011302;28;20026;-75
2022/09/10 02:34:33;;;;;;;2.13;0.60;;;15.90;99.90;;;;;;5014853;28;20080;-75
2022/09/10 02:37:00;;;;;;;1.85;0.60;;;15.90;99.90;;;;;;5015261;28;20033;-75
2022/09/10 02:39:25;;;;;;;1.95;0.40;;;15.90;99.90;;;;;;5016370;28;20026;-76
2022/09/10 02:41:51;;;;;;;1.73;0.60;;;15.90;99.90;;;;;;5017058;28;20026;-75
2022/09/10 02:44:16;;;;;;;2.55;0.40;;;15.90;99.90;;;;;;5014747;28;20033;-75
2022/09/10 02:46:43;;;;;;;0.47;0.40;;;15.90;99.90;;;;;;5016781;28;20467;-75
2022/09/10 02:49:08;;;;;;;5.53;0.52;;;15.90;99.90;;;;;;5015052;28;20042;-76
2022/09/10 02:51:35;;;;;;;2.33;0.30;;;15.90;99.90;;;;;;5017698;28;20228;-78
2022/09/10 02:54:02;;;;;;;2.55;0.40;;;15.90;99.90;;;;;;5016800;28;20025;-78
2022/09/10 02:56:27;;;;;;;1.83;0.38;;;15.90;99.90;;;;;;5015195;28;20057;-78
2022/09/10 02:58:53;;;;;;;1.70;0.50;;;15.90;99.90;;;;;;5015675;28;20053;-77
2022/09/10 03:01:20;;;;;;;1.10;0.30;;;15.90;99.90;;;;;;5015393;28;20026;-78
2022/09/10 03:03:53;;;;;;;2.17;0.40;;;15.90;99.90;;;;;;5015238;28;20467;-77
2022/09/10 03:06:20;;;;;;;1.40;0.22;;;15.90;99.90;;;;;;5015255;28;20026;-77
2022/09/10 03:08:46;;;;;;;3.25;0.70;;;15.80;99.90;;;;;;5015612;28;20034;-77
2022/09/10 03:11:12;;;;;;;2.08;0.60;;;15.90;99.90;;;;;;5015333;28;20116;-77
2022/09/10 03:13:38;;;;;;;2.35;0.30;;;15.90;99.90;;;;;;5015534;28;20466;-76
2022/09/10 03:16:03;;;;;;;4.22;0.68;;;15.90;99.90;;;;;;5016692;28;20108;-77
2022/09/10 03:18:30;;;;;;;0.90;0.30;;;15.90;99.90;;;;;;5014728;28;20483;-77
2022/09/10 03:21:07;;;;;;;1.30;0.45;;;15.90;99.90;;;;;;5015279;28;20022;-76
2022/09/10 03:23:33;;;;;;;0.65;0.25;;;15.90;99.90;;;;;;5014752;28;20026;-76
2022/09/10 03:25:59;;;;;;;1.52;0.40;;;15.90;99.90;;;;;;5015443;28;20025;-77
2022/09/10 03:28:25;;;;;;;1.05;0.30;;;15.90;99.90;;;;;;5014940;28;20120;-77
2022/09/10 03:30:51;;;;;;;3.17;0.40;;;15.90;99.90;;;;;;5016402;28;20026;-75
2022/09/10 03:33:20;;;;;;;4.20;0.77;;;15.90;99.90;;;;;;5015276;28;20029;-76
2022/09/10 03:35:45;;;;;;;1.90;0.40;;;15.90;99.90;;;;;;5016365;28;20109;-76
2022/09/10 03:38:12;;;;;;;0.82;0.20;;;16.00;99.90;;;;;;5014260;28;20121;-76
2022/09/10 03:40:38;;;;;;;1.25;0.40;;;16.00;99.90;;;;;;5014993;28;20030;-76
2022/09/10 03:43:04;;;;;;;1.50;0.35;;;16.00;99.90;;;;;;5014375;28;20368;-76
2022/09/10 03:45:30;;;;;;;1.17;0.52;;;16.10;99.90;;;;;;5014898;28;20065;-76
2022/09/10 03:47:55;;;;;;;3.78;0.50;;;16.00;99.90;;;;;;5014397;28;20370;-76
2022/09/10 03:50:21;;;;;;;2.92;0.28;;;16.10;99.90;;;;;;5014225;28;20026;-76
2022/09/10 03:52:46;;;;;;;2.67;0.47;;;16.10;99.90;;;;;;5015148;28;20064;-76
2022/09/10 03:55:12;;;;;;;0.45;0.40;;;16.10;99.90;;;;;;5014067;28;20459;-76
2022/09/10 03:57:40;;;;;;;3.70;0.50;;;16.00;99.90;;;;;;5015004;28;20097;-76
2022/09/10 04:00:08;;;;;;;1.50;0.30;;;16.10;99.90;;;;;;5014351;28;20030;-76
2022/09/10 04:02:33;;;;;;;0.98;0.40;;;16.10;99.90;;;;;;5015329;28;20072;-76
2022/09/10 04:04:59;;;;;;;2.08;0.52;;;16.10;99.90;;;;;;5014481;28;20521;-76
2022/09/10 04:07:25;;;;;;;1.15;0.55;;;16.10;99.90;;;;;;5013659;28;20041;-76
2022/09/10 04:09:50;;;;;;;2.33;0.45;;;16.10;99.90;;;;;;5014627;28;20463;-75
2022/09/10 04:12:16;;;;;;;2.08;0.40;;;16.20;99.90;;;;;;5013227;28;20048;-76
2022/09/10 04:14:44;;;;;;;1.63;0.52;;;16.10;99.90;;;;;;5012944;28;20030;-76
2022/09/10 04:17:10;;;;;;;2.95;0.40;;;16.10;99.90;;;;;;5012715;28;20096;-75
2022/09/10 04:19:36;;;;;;;1.02;0.30;;;16.10;99.90;;;;;;5013401;28;20053;-75
2022/09/10 04:22:02;;;;;;;0.73;0.30;;;16.20;99.90;;;;;;5013276;28;20022;-75
2022/09/10 04:24:28;;;;;;;2.05;0.32;;;16.20;99.90;;;;;;5012413;28;20076;-75
2022/09/10 04:26:53;;;;;;;2.97;0.50;;;16.20;99.90;;;;;;5012527;28;20033;-75
2022/09/10 04:29:19;;;;;;;4.32;1.63;;;16.20;99.90;;;;;;5012607;28;20034;-75
2022/09/10 04:31:45;;;;;;;0.95;0.50;;;16.20;99.90;;;;;;5014287;28;20025;-74
2022/09/10 04:34:11;;;;;;;2.30;0.70;;;16.20;99.90;;;;;;5013686;28;20060;-76
2022/09/10 04:36:37;;;;;;;5.78;0.70;;;16.20;99.90;;;;;;5014189;28;20065;-75
2022/09/10 04:39:02;;;;;;;1.60;0.40;;;16.20;99.90;;;;;;5013293;28;20120;-76
2022/09/10 04:41:28;;;;;;;1.67;0.40;;;16.30;99.90;;;;;;5012953;28;20475;-77
2022/09/10 04:43:54;;;;;;;2.03;0.40;;;16.20;99.90;;;;;;5014268;28;20026;-77
2022/09/10 04:46:19;;;;;;;3.95;0.47;;;16.20;99.90;;;;;;5012883;28;20030;-77
2022/09/10 04:48:45;;;;;;;0.90;0.40;;;16.20;99.90;;;;;;5014054;28;20041;-77
2022/09/10 04:51:12;;;;;;;1.40;0.43;;;16.20;99.90;;;;;;5012843;28;20387;-78
2022/09/10 04:53:38;;;;;;;3.88;0.45;;;16.20;99.90;;;;;;5013140;28;20467;-77
2022/09/10 04:56:04;;;;;;;1.40;0.50;;;16.30;99.90;;;;;;5012341;28;20025;-76
2022/09/10 04:58:30;;;;;;;0.98;0.30;;;16.30;99.90;;;;;;5013503;28;20109;-76
2022/09/10 05:00:56;;;;;;;2.58;0.50;;;16.30;99.90;;;;;;5012472;28;20435;-76
2022/09/10 05:03:22;;;;;;;3.53;0.50;;;16.30;99.90;;;;;;5012127;28;20088;-75
2022/09/10 05:05:48;;;;;;;1.80;0.40;;;16.30;99.90;;;;;;5012835;28;20041;-76
2022/09/10 05:08:13;;;;;;;4.32;0.55;;;16.30;99.90;;;;;;5013163;28;20034;-76
2022/09/10 05:10:40;;;;;;;3.70;0.50;;;16.30;99.90;;;;;;5013782;28;20033;-76
2022/09/10 05:13:06;;;;;;;0.82;0.50;;;16.40;99.90;;;;;;5012514;28;20033;-76
2022/09/10 05:15:33;;;;;;;1.42;0.40;;;16.30;99.90;;;;;;5011682;28;20514;-76
2022/09/10 05:17:59;;;;;;;1.15;0.40;;;16.30;99.90;;;;;;5013734;28;20044;-76
2022/09/10 05:20:26;;;;;;;1.77;0.50;;;16.30;99.90;;;;;;5013212;28;20029;-76
2022/09/10 05:22:55;;;;;;;0.88;0.47;;;16.30;99.90;;;;;;5012207;28;20061;-76
2022/09/10 05:25:21;;;;;;;1.05;0.70;;;16.30;99.90;;;;;;5011780;28;20129;-75
2022/09/10 05:27:48;;;;;;;1.20;0.43;;;16.30;99.90;;;;;;5013656;28;20045;-75
2022/09/10 05:30:13;;;;;;;2.58;0.43;;;16.30;99.90;;;;;;5011511;28;20026;-78
2022/09/10 05:32:39;;;;;;;1.63;0.50;;;16.30;99.90;;;;;;5012208;28;20395;-75
2022/09/10 05:35:07;;;;;;;1.67;0.63;;;16.30;99.90;;;;;;5012351;28;20079;-75
2022/09/10 05:37:33;;;;;;;0.70;0.40;;;16.40;99.90;;;;;;5011407;28;20172;-75
2022/09/10 05:39:59;;;;;;;2.38;0.60;;;16.40;99.90;;;;;;5013114;28;20045;-76
2022/09/10 05:42:25;;;;;;;1.52;0.65;;;16.40;99.90;;;;;;5011643;28;20025;-76
2022/09/10 05:44:52;;;;;;;2.28;0.45;;;16.40;99.90;;;;;;5012030;28;20026;-77
2022/09/10 05:47:17;;;;;;;2.45;0.70;;;16.40;99.90;;;;;;5011521;28;20030;-75
2022/09/10 05:49:45;;;;;;;1.65;0.50;;;16.40;99.90;;;;;;5011869;28;20033;-77
2022/09/10 05:52:11;;;;;;;2.53;0.40;;;16.30;99.90;;;;;;5012201;28;20030;-76
2022/09/10 05:54:37;;;;;;;2.08;0.70;;;16.30;99.90;;;;;;5011413;28;20022;-76
2022/09/10 05:57:03;;;;;;;1.25;0.30;;;16.30;99.90;;;;;;5011917;28;20072;-77
2022/09/10 05:59:28;;;;;;;3.70;0.40;;;16.30;99.90;;;;;;5011489;28;20092;-76
2022/09/10 06:01:54;;;;;;;4.07;0.40;;;16.30;99.90;;;;;;5011890;28;20117;-75
2022/09/10 06:04:20;;;;;;;3.20;0.60;;;16.30;99.90;;;;;;5012213;28;20383;-75
2022/09/10 06:06:46;;;;;;;3.40;0.52;;;16.30;99.90;;;;;;5013063;28;20101;-76
2022/09/10 06:09:12;;;;;;;0.93;0.30;;;16.30;99.90;;;;;;5016998;28;20043;-75
2022/09/10 06:11:38;;;;;;;2.30;0.50;;;16.30;99.90;;;;;;4999006;28;20387;-76
2022/09/10 06:14:04;;;;;;;3.45;0.57;;;16.30;99.90;;;;;;5015622;28;20022;-75
2022/09/10 06:16:30;;;;;;;0.88;0.30;;;16.30;99.90;;;;;;5016117;28;20050;-75
2022/09/10 06:18:58;;;;;;;2.25;0.43;;;16.30;99.90;;;;;;5016663;28;20030;-75
2022/09/10 06:21:24;;;;;;;1.77;0.30;;;16.30;99.90;;;;;;5015105;28;20116;-76
2022/09/10 06:23:56;;;;;;;1.45;0.47;;;16.30;99.90;;;;;;5015627;28;20070;-76
2022/09/10 06:26:21;;;;;;;2.08;0.50;;;16.30;99.90;;;;;;5016545;28;20105;-76
2022/09/10 06:28:48;;;;;;;3.33;0.50;;;16.30;99.90;;;;;;5016404;28;20165;-76
2022/09/10 06:31:16;;;;;;;0.68;0.40;;;16.30;99.90;;;;;;5015490;28;20498;-76
2022/09/10 06:33:43;;;;;;;7.25;0.60;;;16.30;99.90;;;;;;5016597;28;20095;-76
2022/09/10 06:36:10;;;;;;;2.22;0.50;;;16.30;99.90;;;;;;5015550;28;20034;-76
2022/09/10 06:38:35;;;;;;;3.58;0.50;;;16.40;99.90;;;;;;5016244;28;20033;-75
2022/09/10 06:41:04;;;;;;;1.77;0.50;;;16.40;99.90;;;;;;5016483;28;20441;-75
2022/09/10 06:43:35;;;;;;;1.08;0.45;;;16.40;99.90;;;;;;5014814;28;20025;-75
2022/09/10 06:46:08;;;;;;;3.65;0.70;;;16.40;99.90;;;;;;5015387;28;20064;-75
2022/09/10 06:48:38;;;;;;;2.08;0.35;;;16.40;99.90;;;;;;5014707;28;20048;-76
2022/09/10 06:51:04;;;;;;;2.08;0.57;;;16.50;99.90;;;;;;5016388;28;20029;-76
2022/09/10 06:53:32;;;;;;;1.40;0.50;;;16.40;99.90;;;;;;5015825;28;20083;-76
2022/09/10 06:55:59;;;;;;;2.92;0.40;;;16.40;99.90;;;;;;5014853;28;20026;-76
2022/09/10 06:58:26;;;;;;;3.33;0.60;;;16.50;99.90;;;;;;5014403;28;20036;-75
2022/09/10 07:00:51;;;;;;;0.90;0.35;;;16.50;99.90;;;;;;5014828;28;20037;-75
2022/09/10 07:03:19;;;;;;;4.18;0.50;;;16.40;99.90;;;;;;5015028;28;20022;-75
2022/09/10 07:05:45;;;;;;;2.97;0.50;;;16.40;99.90;;;;;;5014941;28;20058;-76
2022/09/10 07:08:14;;;;;;;1.25;0.30;;;16.50;99.90;;;;;;5015691;28;20038;-75
2022/09/10 07:10:41;;;;;;;3.58;0.50;;;16.40;99.90;;;;;;5014242;28;20034;-76
2022/09/10 07:13:06;;;;;;;1.45;0.50;;;16.40;99.90;;;;;;5014875;28;20148;-76
2022/09/10 07:15:33;;;;;;;4.07;0.95;;;16.40;99.90;;;;;;5015291;28;20156;-76
2022/09/10 07:17:59;;;;;;;4.30;0.60;;;16.50;99.90;;;;;;5015921;28;20207;-75
2022/09/10 07:20:27;;;;;;;2.00;0.40;;;16.60;99.90;;;;;;5013285;28;20419;-75
2022/09/10 07:22:54;;;;;;;2.05;0.40;;;16.70;99.90;;;;;;5014511;28;20068;-74
2022/09/10 07:25:20;;;;;;;2.42;0.32;;;16.80;99.90;;;;;;5015564;28;20114;-74
2022/09/10 07:27:46;;;;;;;1.60;0.25;;;16.90;99.90;;;;;;5014216;28;20025;-75
2022/09/10 07:30:12;;;;;;;2.08;0.40;;;16.90;99.90;;;;;;5014136;28;20180;-74
2022/09/10 07:32:39;;;;;;;3.65;0.50;;;17.00;99.90;;;;;;5014785;28;20120;-77
2022/09/10 07:35:06;;;;;;;2.30;0.47;;;17.00;99.90;;;;;;5015688;28;20037;-77
2022/09/10 07:37:33;;;;;;;2.35;0.50;;;17.00;99.90;;;;;;5014028;28;20030;-76
2022/09/10 07:39:58;;;;;;;5.43;0.57;;;17.00;99.90;;;;;;5014587;28;20157;-76
2022/09/10 07:42:24;;;;;;;0.43;0.38;;;17.00;99.90;;;;;;5015223;28;20391;-76
2022/09/10 07:44:50;;;;;;;2.08;0.30;;;17.00;99.90;;;;;;5016406;28;20030;-76
2022/09/10 07:47:16;;;;;;;3.10;0.30;;;17.10;99.90;;;;;;5015755;28;20498;-76
2022/09/10 07:49:44;;;;;;;1.27;0.30;;;17.10;99.90;;;;;;5014169;28;20137;-75
2022/09/10 07:52:11;;;;;;;2.00;0.35;;;17.20;99.90;;;;;;5014356;28;20030;-76
2022/09/10 07:54:37;;;;;;;2.22;0.47;;;17.10;99.90;;;;;;5014180;28;20028;-75
2022/09/10 07:57:03;;;;;;;0.93;0.20;;;17.00;99.90;;;;;;5014357;28;20026;-75
2022/09/10 07:59:29;;;;;;;1.65;0.35;;;17.00;99.90;;;;;;5014705;28;20025;-76
2022/09/10 08:01:58;;;;;;;0.80;0.22;;;17.10;99.90;;;;;;5013635;28;20103;-75
2022/09/10 08:04:23;;;;;;;4.32;0.50;;;17.10;99.90;;;;;;5013273;28;20061;-76
2022/09/10 08:06:50;;;;;;;4.78;0.80;;;17.10;99.90;;;;;;5013291;28;20061;-75
2022/09/10 08:09:18;;;;;;;1.25;0.30;;;17.20;99.90;;;;;;5013216;28;20533;-75
2022/09/10 08:11:44;;;;;;;1.02;0.30;;;17.20;99.90;;;;;;5013597;28;20037;-76
2022/09/10 08:14:12;;;;;;;1.38;0.30;;;17.30;99.90;;;;;;5015009;28;20026;-75
2022/09/10 08:16:38;;;;;;;2.60;0.30;;;17.50;99.90;;;;;;5008216;28;20054;-76
2022/09/10 08:19:04;;;;;;;2.25;0.30;;;17.50;99.90;;;;;;5013173;28;20099;-76
2022/09/10 08:21:30;;;;;;;2.63;0.65;;;17.60;99.90;;;;;;5014355;28;20022;-76
2022/09/10 08:23:56;;;;;;;0.40;0.20;;;17.60;99.90;;;;;;5014565;28;20101;-76
2022/09/10 08:26:24;;;;;;;1.42;0.30;;;17.70;99.90;;;;;;5013418;28;20113;-77
2022/09/10 08:28:50;;;;;;;1.58;0.30;;;17.70;99.90;;;;;;5012983;28;20129;-75
2022/09/10 08:31:16;;;;;;;1.35;0.20;;;17.70;99.90;;;;;;5013679;28;20022;-77
2022/09/10 08:33:50;;;;;;;1.45;0.30;;;17.70;99.90;;;;;;5014376;28;20021;-77
2022/09/10 08:36:17;;;;;;;1.70;0.32;;;17.80;99.90;;;;;;5015052;28;20057;-77
2022/09/10 08:38:43;;;;;;;4.03;0.50;;;17.90;99.90;;;;;;5013015;28;20036;-76
2022/09/10 08:41:12;;;;;;;7.20;0.70;;;17.90;99.90;;;;;;5013119;28;20493;-77
2022/09/10 08:43:57;;;;;;;1.02;0.40;;;18.00;99.90;;;;;;5013183;28;20133;-76
2022/09/10 08:46:47;;;;;;;2.17;0.30;;;18.00;99.90;;;;;;5012897;28;20486;-76
2022/09/10 08:49:28;;;;;;;2.63;0.50;;;18.00;99.90;;;;;;5011631;28;20121;-77
2022/09/10 08:52:00;;;;;;;3.15;0.57;;;18.00;99.90;;;;;;5012683;28;20109;-75
2022/09/10 08:55:05;;;;;;;3.72;0.55;;;18.00;99.90;;;;;;5009979;28;20026;-82
2022/09/10 08:57:38;;;;;;;0.98;0.57;;;18.00;99.90;;;;;;4997515;28;20037;-76
2022/09/10 09:00:06;;;;;;;0.80;0.32;;;17.90;99.90;;;;;;5013194;28;20026;-76
2022/09/10 09:03:09;;;;;;;3.10;0.70;;;17.90;99.90;;;;;;5010274;28;20025;-75
2022/09/10 09:05:47;;;;;;;2.85;0.50;;;18.00;99.90;;;;;;5013108;28;20053;-75
2022/09/10 09:08:17;;;;;;;2.88;0.30;;;18.10;99.90;;;;;;5012578;28;20036;-75
2022/09/10 09:10:45;;;;;;;2.78;0.50;;;18.10;99.90;;;;;;5011986;28;20025;-75
2022/09/10 09:13:13;;;;;;;2.00;0.32;;;18.10;99.90;;;;;;5013604;28;20079;-75
2022/09/10 09:15:52;;;;;;;2.85;0.70;;;18.10;99.90;;;;;;5013088;28;20054;-75
2022/09/10 09:18:36;;;;;;;1.75;0.45;;;18.20;99.90;;;;;;5013936;28;20033;-75
2022/09/10 09:21:15;;;;;;;3.30;0.30;;;18.30;99.90;;;;;;5013739;28;20053;-74
2022/09/10 09:23:56;;;;;;;3.50;0.30;;;18.30;99.90;;;;;;5012901;28;20022;-74
2022/09/10 09:26:35;;;;;;;5.68;0.60;;;18.30;99.90;;;;;;5012458;28;20083;-75
2022/09/10 09:29:17;;;;;;;1.83;0.40;;;18.30;99.90;;;;;;5013322;28;20084;-75
2022/09/10 09:31:48;;;;;;;2.70;0.50;;;18.50;99.90;;;;;;5012986;28;20479;-75
2022/09/10 09:34:40;;;;;;;2.15;0.52;;;18.50;99.90;;;;;;5013586;28;20026;-75
2022/09/10 09:37:20;;;;;;;4.72;0.50;;;18.60;99.90;;;;;;5013577;28;20030;-75
2022/09/10 09:39:52;;;;;;;1.42;0.45;;;18.50;99.90;;;;;;5011763;28;20040;-75
2022/09/10 09:42:27;;;;;;;1.05;0.32;;;18.60;99.90;;;;;;5011933;28;20060;-75
2022/09/10 09:45:02;;;;;;;2.92;0.50;;;18.60;99.90;;;;;;5011944;28;20030;-75
2022/09/10 09:47:27;;;;;;;3.08;0.40;;;18.70;99.90;;;;;;5012887;28;20034;-77
2022/09/10 09:49:53;;;;;;;1.30;0.40;;;18.80;99.90;;;;;;5012067;28;20092;-75
2022/09/10 09:52:22;;;;;;;2.90;0.40;;;18.90;99.90;;;;;;5012074;28;20034;-74
2022/09/10 09:54:55;;;;;;;3.92;0.68;;;18.90;99.90;;;;;;5011551;28;20129;-75
2022/09/10 09:57:21;;;;;;;0.80;0.38;;;18.90;99.90;;;;;;5012301;28;20030;-74
2022/09/10 09:59:48;;;;;;;1.77;0.35;;;18.80;99.90;;;;;;5012600;28;20374;-75
2022/09/10 10:02:35;;;;;;;1.10;0.50;;;18.70;99.90;;;;;;5011996;28;20057;-74
2022/09/10 10:05:01;;;;;;;2.05;0.70;;;18.60;99.90;;;;;;5013172;28;20026;-74
2022/09/10 10:07:31;;;;;;;3.20;0.50;;;18.60;99.90;;;;;;5012037;28;20022;-74
2022/09/10 10:09:59;;;;;;;2.92;0.43;;;18.60;99.90;;;;;;5011834;28;20471;-75
2022/09/10 10:12:30;;;;;;;6.60;0.80;;;18.70;99.90;;;;;;5011985;28;20026;-75
2022/09/10 10:14:56;;;;;;;3.63;1.15;;;18.80;99.90;;;;;;5011721;28;20034;-75
2022/09/10 10:17:35;;;;;;;2.28;0.47;;;18.90;99.90;;;;;;5011323;28;20054;-75
2022/09/10 10:20:13;;;;;;;1.52;0.43;;;19.00;99.90;;;;;;5013052;28;20089;-75
2022/09/10 10:22:41;;;;;;;2.08;0.50;;;19.00;99.90;;;;;;5012177;28;20022;-75
2022/09/10 10:25:29;;;;;;;2.55;0.60;;;19.20;99.90;;;;;;5011871;28;20026;-75
2022/09/10 10:27:56;;;;;;;3.22;0.57;;;19.10;99.90;;;;;;5011328;28;20026;-75
2022/09/10 10:30:23;;;;;;;0.52;0.40;;;19.00;99.90;;;;;;5012664;28;20049;-75
2022/09/10 10:32:57;;;;;;;5.55;0.60;;;18.90;99.90;;;;;;5011174;28;20033;-75
2022/09/10 10:35:37;;;;;;;3.50;0.43;;;18.80;99.90;;;;;;5011563;28;20126;-75
2022/09/10 10:38:39;;;;;;;4.68;0.52;;;19.00;99.90;;;;;;5011691;28;20033;-74
2022/09/10 10:41:19;;;;;;;1.48;0.40;;;19.10;99.90;;;;;;5011183;28;20054;-75
2022/09/10 10:43:46;;;;;;;1.00;0.57;;;19.30;99.90;;;;;;5012318;28;20026;-75
2022/09/10 10:46:19;;;;;;;3.03;0.73;;;19.50;99.90;;;;;;5011311;28;20026;-75
2022/09/10 10:49:01;;;;;;;2.20;0.65;;;19.60;99.90;;;;;;5011078;28;20479;-74
2022/09/10 10:51:40;;;;;;;3.60;0.55;;;19.60;99.90;;;;;;5012923;28;20026;-75
2022/09/10 10:54:28;;;;;;;1.55;0.57;;;19.40;99.90;;;;;;5012080;28;20113;-74
2022/09/10 10:57:21;;;;;;;2.70;0.47;;;19.30;99.90;;;;;;5014633;28;20022;-75
2022/09/10 11:00:08;;;;;;;2.15;0.50;;;19.60;99.90;;;;;;5015789;28;20475;-75
2022/09/10 11:02:49;;;;;;;2.20;0.60;;;19.60;99.90;;;;;;5014805;28;20033;-75
2022/09/10 11:05:30;;;;;;;4.18;0.60;;;19.50;99.90;;;;;;5015245;28;20029;-75
2022/09/10 11:08:02;;;;;;;5.05;0.95;;;19.30;99.90;;;;;;5014125;28;20061;-75
2022/09/10 11:10:46;;;;;;;1.65;0.43;;;19.40;99.90;;;;;;5014902;28;20368;-75
2022/09/10 11:13:26;;;;;;;5.43;0.70;;;19.60;99.90;;;;;;5014895;28;20026;-75
2022/09/10 11:16:11;;;;;;;3.20;0.70;;;19.70;99.90;;;;;;5015403;28;20046;-75
2022/09/10 11:19:14;;;;;;;3.38;0.50;;;19.80;99.90;;;;;;5015071;28;20033;-75
2022/09/10 11:21:49;;;;;;;4.28;0.55;;;19.90;99.90;;;;;;5008374;28;20104;-75
2022/09/10 11:24:21;;;;;;;4.47;0.90;;;20.00;99.90;;;;;;5015787;28;20026;-75
2022/09/10 11:27:04;;;;;;;6.65;1.27;;;20.00;99.90;;;;;;5013983;28;20430;-75
2022/09/10 11:29:42;;;;;;;6.20;1.20;;;20.00;99.90;;;;;;5015484;28;20463;-74
2022/09/10 11:32:12;;;;;;;4.68;1.88;;;19.90;99.90;;;;;;5014519;28;20030;-75
2022/09/10 11:35:16;;;;;;;2.67;0.95;;;20.00;99.90;;;;;;5013884;28;20426;-75
2022/09/10 11:37:49;;;;;;;5.55;1.20;;;20.30;99.90;;;;;;4995953;28;20072;-75
2022/09/10 11:40:40;;;;;;;4.38;1.15;;;20.40;99.90;;;;;;5014648;28;20053;-75
2022/09/10 11:43:19;;;;;;;4.22;1.65;;;20.30;99.90;;;;;;5014742;28;20380;-75
2022/09/10 11:45:54;;;;;;;2.65;0.60;;;20.20;99.90;;;;;;5013708;28;20030;-75
2022/09/10 11:48:34;;;;;;;3.63;0.60;;;20.10;99.90;;;;;;5015740;28;20125;-75
2022/09/10 11:51:29;;;;;;;6.13;0.55;;;20.10;99.90;;;;;;5014115;28;20103;-75
2022/09/10 11:53:55;;;;;;;4.63;0.50;;;20.10;99.90;;;;;;5013434;28;20528;-75
2022/09/10 11:56:48;;;;;;;2.13;0.52;;;20.20;99.90;;;;;;5015658;28;20025;-75
2022/09/10 11:59:20;;;;;;;2.50;0.63;;;20.30;99.90;;;;;;5013937;28;20033;-74
2022/09/10 12:01:48;;;;;;;3.38;0.75;;;20.50;99.90;;;;;;5013338;28;20459;-75
2022/09/10 12:04:25;;;;;;;1.55;0.40;;;20.60;99.70;;;;;;5013836;28;20053;-75
2022/09/10 12:07:17;;;;;;;1.98;0.60;;;20.60;99.80;;;;;;5013063;28;20026;-75
2022/09/10 12:09:54;;;;;;;3.35;0.60;;;20.60;99.80;;;;;;5013251;28;20030;-74
2022/09/10 12:12:39;;;;;;;4.32;0.60;;;20.40;99.90;;;;;;5013654;28;20032;-75
2022/09/10 12:15:26;;;;;;;3.28;0.55;;;20.30;99.90;;;;;;5013223;28;20033;-76
2022/09/10 12:18:15;;;;;;;4.38;0.50;;;20.10;99.90;;;;;;5014136;28;20494;-74
2022/09/10 12:21:03;;;;;;;1.85;0.40;;;20.00;99.90;;;;;;5014164;28;20029;-75
2022/09/10 12:23:31;;;;;;;1.38;0.45;;;19.90;99.90;;;;;;5013221;28;20026;-74
2022/09/10 12:25:58;;;;;;;4.93;0.63;;;19.80;99.90;;;;;;5013840;28;20030;-75
2022/09/10 12:28:42;;;;;;;3.85;0.40;;;19.80;99.90;;;;;;5013081;28;20038;-75
2022/09/10 12:31:14;;;;;;;2.30;0.85;;;19.90;99.90;;;;;;5013122;28;20054;-75
2022/09/10 12:33:42;;;;;;;;;;;19.90;99.90;;;;;;5013033;28;20387;-75
2022/09/10 12:36:13;;;;;;;6.20;0.70;;;19.80;99.90;;;;;;5014447;28;19913;-75
2022/09/10 12:38:46;;;;;;;2.85;0.60;;;19.80;99.90;;;;;;5012445;28;20494;-76
2022/09/10 12:41:24;;;;;;;3.60;0.68;;;19.80;99.90;;;;;;5012864;28;20479;-75
2022/09/10 12:43:58;;;;;;;1.48;0.40;;;19.70;99.90;;;;;;5012177;28;20498;-75
2022/09/10 12:46:24;;;;;;;2.28;0.43;;;19.70;99.90;;;;;;5013782;28;20077;-74
2022/09/10 12:48:54;;;;;;;2.95;0.50;;;19.70;99.90;;;;;;5012301;28;20044;-75
2022/09/10 12:51:45;;;;;;;2.17;0.60;;;19.60;99.90;;;;;;5014098;28;20030;-75
2022/09/10 12:54:25;;;;;;;1.37;0.50;;;19.70;99.90;;;;;;5012669;28;20026;-75
2022/09/10 12:57:19;;;;;;;1.67;0.33;;;19.90;99.90;;;;;;5012166;28;20026;-75
2022/09/10 13:00:17;;;;;;;3.05;0.77;;;20.00;99.90;;;;;;5008800;28;20026;-75
2022/09/10 13:02:52;;;;;;;3.35;0.90;;;20.40;99.90;;;;;;5005757;28;20018;-75
2022/09/10 13:05:39;;;;;;;6.25;1.20;;;20.70;99.90;;;;;;5004210;28;20117;-77
2022/09/10 13:08:09;;;;;;;2.75;0.75;;;21.00;99.90;;;;;;5013324;28;20026;-76
2022/09/10 13:10:36;;;;;;;5.18;0.77;;;20.90;99.90;;;;;;5012583;28;20057;-76